createdAt,value
2019-03-23T00:00:44.881Z,79.70
2019-03-23T00:03:16.877Z,79.60
2019-03-23T00:05:47.774Z,79.20
2019-03-23T00:08:18.738Z,79.40
2019-03-23T00:10:49.579Z,79.30
2019-03-23T00:13:20.436Z,79.30
2019-03-23T00:15:51.330Z,79.30
2019-03-23T00:18:22.186Z,78.60
2019-03-23T00:20:53.000Z,78.20
2019-03-23T00:23:23.882Z,78.30
2019-03-23T00:25:54.768Z,79.60
2019-03-23T00:28:25.663Z,80.30
2019-03-23T00:30:56.509Z,80.60
2019-03-23T00:33:27.373Z,80.00
2019-03-23T00:35:58.201Z,80.40
2019-03-23T00:38:29.118Z,80.30
2019-03-23T00:40:59.966Z,79.70
2019-03-23T00:43:30.899Z,79.30
2019-03-23T00:46:01.811Z,79.40
2019-03-23T00:48:32.689Z,79.60
2019-03-23T00:51:03.559Z,79.00
2019-03-23T00:53:34.425Z,78.00
2019-03-23T00:56:05.273Z,78.10
2019-03-23T00:58:36.139Z,78.90
2019-03-23T01:01:07.041Z,78.10
2019-03-23T01:03:37.899Z,77.60
2019-03-23T01:06:08.783Z,77.60
2019-03-23T01:08:39.676Z,77.90
2019-03-23T01:11:10.502Z,79.60
2019-03-23T01:13:41.417Z,78.40
2019-03-23T01:16:12.244Z,78.30
2019-03-23T01:18:43.110Z,78.60
2019-03-23T01:21:13.987Z,79.90
2019-03-23T01:23:44.868Z,78.70
2019-03-23T01:26:15.779Z,78.80
2019-03-23T01:28:46.709Z,79.50
2019-03-23T01:31:17.541Z,81.20
2019-03-23T01:33:48.406Z,80.20
2019-03-23T01:36:19.258Z,81.50
2019-03-23T01:38:50.110Z,83.70
2019-03-23T01:41:21.042Z,83.30
2019-03-23T01:43:51.897Z,82.50
2019-03-23T01:46:22.737Z,81.80
2019-03-23T01:48:53.605Z,82.70
2019-03-23T01:51:24.498Z,82.30
2019-03-23T01:53:55.418Z,83.30
2019-03-23T01:56:26.273Z,84.00
2019-03-23T01:58:57.162Z,84.80
2019-03-23T02:01:28.176Z,85.40
2019-03-23T02:03:59.190Z,85.50
2019-03-23T02:06:30.092Z,85.00
2019-03-23T02:09:00.978Z,85.30
2019-03-23T02:11:32.558Z,85.20
2019-03-23T02:14:03.447Z,84.40
2019-03-23T02:16:34.281Z,85.60
2019-03-23T02:19:05.201Z,84.80
2019-03-23T02:21:36.077Z,84.60
2019-03-23T02:24:07.045Z,83.30
2019-03-23T02:26:38.135Z,83.90
2019-03-23T02:29:09.041Z,84.70
2019-03-23T02:31:41.024Z,84.40
2019-03-23T02:34:11.918Z,83.90
2019-03-23T02:36:42.940Z,83.40
2019-03-23T02:39:13.918Z,82.10
2019-03-23T02:41:44.791Z,82.60
2019-03-23T02:44:15.686Z,83.60
2019-03-23T02:46:47.618Z,83.80
2019-03-23T02:49:18.511Z,83.50
2019-03-23T02:51:49.467Z,84.00
2019-03-23T02:54:20.404Z,83.90
2019-03-23T02:56:51.441Z,84.60
2019-03-23T02:59:22.385Z,83.90
2019-03-23T03:01:53.242Z,82.90
2019-03-23T03:04:24.095Z,83.30
2019-03-23T03:06:54.949Z,83.50
2019-03-23T03:09:25.920Z,83.00
2019-03-23T03:11:56.758Z,82.80
2019-03-23T03:14:27.625Z,82.60
2019-03-23T03:16:58.466Z,84.30
2019-03-23T03:19:29.354Z,83.40
2019-03-23T03:22:00.208Z,83.40
2019-03-23T03:24:31.056Z,83.80
2019-03-23T03:27:01.892Z,84.50
2019-03-23T03:29:32.749Z,85.10
2019-03-23T03:32:03.760Z,84.10
2019-03-23T03:34:34.619Z,84.60
2019-03-23T03:37:05.623Z,85.20
2019-03-23T03:39:36.492Z,85.60
2019-03-23T03:42:07.323Z,84.40
2019-03-23T03:44:38.168Z,85.10
2019-03-23T03:47:09.029Z,84.20
2019-03-23T03:49:39.924Z,84.60
2019-03-23T03:52:10.755Z,84.00
2019-03-23T03:54:41.624Z,84.10
2019-03-23T03:57:12.448Z,85.40
2019-03-23T03:59:43.316Z,86.10
2019-03-23T04:02:16.339Z,85.60
2019-03-23T04:04:47.273Z,85.30
2019-03-23T04:07:18.125Z,85.40
2019-03-23T04:09:48.970Z,85.20
2019-03-23T04:12:19.794Z,84.50
2019-03-23T04:14:50.739Z,84.50
2019-03-23T04:17:21.576Z,84.70
2019-03-23T04:19:52.470Z,84.80
2019-03-23T04:22:23.375Z,84.90
2019-03-23T04:24:54.249Z,85.00
2019-03-23T04:27:25.094Z,84.80
2019-03-23T04:29:55.946Z,84.90
2019-03-23T04:32:26.769Z,85.30
2019-03-23T04:34:57.626Z,84.90
2019-03-23T04:37:28.466Z,85.70
2019-03-23T04:39:59.472Z,85.10
2019-03-23T04:42:30.297Z,85.70
2019-03-23T04:45:01.152Z,85.20
2019-03-23T04:47:31.972Z,85.10
2019-03-23T04:50:02.829Z,85.40
2019-03-23T04:52:33.661Z,85.40
2019-03-23T04:55:05.499Z,85.40
2019-03-23T04:57:36.962Z,86.30
2019-03-23T05:00:08.586Z,87.70
2019-03-23T05:02:39.478Z,86.70
2019-03-23T05:05:11.062Z,86.00
2019-03-23T05:07:41.886Z,86.00
2019-03-23T05:10:13.821Z,86.80
2019-03-23T05:12:44.790Z,86.40
2019-03-23T05:15:16.823Z,86.10
2019-03-23T05:17:48.675Z,86.20
2019-03-23T05:20:38.495Z,86.10
2019-03-23T05:23:09.441Z,86.30
2019-03-23T05:25:40.529Z,86.40
2019-03-23T05:28:11.395Z,86.30
2019-03-23T05:30:42.445Z,86.40
2019-03-23T05:33:13.480Z,86.30
2019-03-23T05:35:44.936Z,86.30
2019-03-23T05:38:15.912Z,87.00
2019-03-23T05:40:46.794Z,86.70
2019-03-23T05:43:17.687Z,87.40
2019-03-23T05:45:48.694Z,87.70
2019-03-23T05:48:19.712Z,90.30
2019-03-23T05:50:51.040Z,90.10
2019-03-23T05:53:21.891Z,90.50
2019-03-23T05:55:52.982Z,90.30
2019-03-23T05:58:23.985Z,89.90
2019-03-23T06:00:54.817Z,89.70
2019-03-23T06:03:25.677Z,89.60
2019-03-23T06:05:56.513Z,89.60
2019-03-23T06:08:27.380Z,88.90
2019-03-23T06:10:58.253Z,88.90
2019-03-23T06:13:29.130Z,89.80
2019-03-23T06:15:59.967Z,89.10
2019-03-23T06:18:30.803Z,89.00
2019-03-23T06:21:01.645Z,88.80
2019-03-23T06:23:32.478Z,89.00
2019-03-23T06:26:06.427Z,88.60
2019-03-23T06:28:37.409Z,88.60
2019-03-23T06:31:08.486Z,88.20
2019-03-23T06:33:39.460Z,88.00
2019-03-23T06:36:10.343Z,88.20
2019-03-23T06:38:41.238Z,88.30
2019-03-23T06:41:12.114Z,88.30
2019-03-23T06:43:42.973Z,89.30
2019-03-23T06:46:13.865Z,88.80
2019-03-23T06:48:44.688Z,88.60
2019-03-23T06:51:15.553Z,88.60
2019-03-23T06:53:46.387Z,88.60
2019-03-23T06:56:17.269Z,88.50
2019-03-23T06:58:48.094Z,88.70
2019-03-23T07:01:18.977Z,88.50
2019-03-23T07:03:49.917Z,88.70
2019-03-23T07:06:20.891Z,88.60
2019-03-23T07:08:51.708Z,88.50
2019-03-23T07:11:22.598Z,88.90
2019-03-23T07:13:53.446Z,88.10
2019-03-23T07:16:24.987Z,88.40
2019-03-23T07:18:55.811Z,88.00
2019-03-23T07:21:26.664Z,87.40
2019-03-23T07:23:57.560Z,87.70
2019-03-23T07:26:28.421Z,87.90
2019-03-23T07:28:59.458Z,87.60
2019-03-23T07:31:30.392Z,86.60
2019-03-23T07:34:01.215Z,86.30
2019-03-23T07:36:32.101Z,86.50
2019-03-23T07:39:04.205Z,86.20
2019-03-23T07:41:35.079Z,85.70
2019-03-23T07:44:06.850Z,85.10
2019-03-23T07:46:37.729Z,84.70
2019-03-23T07:49:08.605Z,84.10
2019-03-23T07:51:39.459Z,83.60
2019-03-23T07:54:10.317Z,83.10
2019-03-23T07:56:41.139Z,82.30
2019-03-23T07:59:11.996Z,81.90
2019-03-23T08:01:42.862Z,80.90
2019-03-23T08:04:13.821Z,80.40
2019-03-23T08:06:44.774Z,79.90
2019-03-23T08:09:20.510Z,77.80
2019-03-23T08:11:48.978Z,75.20
2019-03-23T08:14:19.980Z,73.40
2019-03-23T08:16:51.116Z,72.50
2019-03-23T08:19:23.036Z,72.10
2019-03-23T08:21:54.105Z,72.00
2019-03-23T08:24:25.003Z,71.20
2019-03-23T08:26:55.890Z,71.30
2019-03-23T08:29:26.746Z,70.50
2019-03-23T08:31:57.679Z,69.20
2019-03-23T08:34:28.535Z,68.30
2019-03-23T08:36:59.536Z,66.80
2019-03-23T08:39:30.445Z,66.60
2019-03-23T08:42:01.566Z,65.30
2019-03-23T08:44:32.830Z,64.00
2019-03-23T08:47:03.859Z,63.70
2019-03-23T08:49:34.732Z,63.10
2019-03-23T08:52:05.577Z,62.70
2019-03-23T08:54:36.512Z,62.40
2019-03-23T08:57:07.422Z,61.70
2019-03-23T08:59:38.385Z,61.20
2019-03-23T09:02:09.216Z,61.10
2019-03-23T09:04:40.073Z,61.20
2019-03-23T09:07:10.922Z,61.00
2019-03-23T09:09:41.783Z,60.90
2019-03-23T09:12:15.503Z,60.20
2019-03-23T09:14:47.524Z,60.00
2019-03-23T09:17:37.173Z,59.80
2019-03-23T09:20:09.091Z,59.30
2019-03-23T09:22:41.006Z,59.60
2019-03-23T09:25:12.179Z,59.60
2019-03-23T09:27:43.161Z,59.30
2019-03-23T09:30:15.334Z,58.70
2019-03-23T09:32:46.225Z,58.60
2019-03-23T09:35:20.134Z,58.60
2019-03-23T09:37:50.989Z,59.10
2019-03-23T09:40:25.225Z,58.00
2019-03-23T09:42:56.058Z,57.90
2019-03-23T09:45:26.923Z,57.70
2019-03-23T09:47:57.770Z,57.20
2019-03-23T09:50:28.866Z,55.80
2019-03-23T09:52:59.722Z,56.20
2019-03-23T09:55:30.590Z,56.20
2019-03-23T09:58:01.412Z,55.60
2019-03-23T10:00:32.364Z,55.30
2019-03-23T10:03:03.199Z,55.10
2019-03-23T10:05:35.150Z,55.00
2019-03-23T10:08:05.990Z,54.40
2019-03-23T10:10:37.934Z,53.30
2019-03-23T10:13:08.840Z,53.50
2019-03-23T10:15:39.737Z,51.70
2019-03-23T10:18:10.621Z,50.90
2019-03-23T10:20:41.474Z,50.90
2019-03-23T10:23:12.311Z,50.40
2019-03-23T10:25:43.276Z,50.50
2019-03-23T10:28:14.116Z,50.30
2019-03-23T10:30:44.984Z,49.00
2019-03-23T10:33:15.868Z,49.10
2019-03-23T10:35:46.809Z,49.30
2019-03-23T10:38:18.655Z,49.10
2019-03-23T10:40:49.954Z,48.90
2019-03-23T10:43:20.798Z,48.80
2019-03-23T10:45:51.648Z,48.70
2019-03-23T10:48:22.469Z,48.10
2019-03-23T10:50:53.358Z,47.60
2019-03-23T10:53:24.183Z,47.40
2019-03-23T10:55:55.041Z,46.60
2019-03-23T10:58:25.910Z,46.20
2019-03-23T11:00:56.768Z,44.50
2019-03-23T11:03:27.945Z,42.90
2019-03-23T11:05:59.793Z,41.40
2019-03-23T11:08:31.586Z,40.90
2019-03-23T11:11:02.611Z,38.10
2019-03-23T11:13:33.545Z,37.60
2019-03-23T11:16:05.818Z,36.80
2019-03-23T11:18:37.832Z,36.60
2019-03-23T11:21:10.816Z,34.60
2019-03-23T11:23:42.594Z,33.20
2019-03-23T11:26:13.431Z,32.60
2019-03-23T11:28:44.271Z,31.10
2019-03-23T11:31:15.162Z,30.80
2019-03-23T11:33:46.034Z,30.70
2019-03-23T11:36:17.128Z,29.40
2019-03-23T11:38:48.164Z,28.90
2019-03-23T11:41:19.039Z,28.80
2019-03-23T11:43:53.225Z,28.10
2019-03-23T11:46:24.094Z,27.70
2019-03-23T11:48:54.996Z,26.90
2019-03-23T11:51:25.907Z,26.40
2019-03-23T11:53:56.732Z,26.60
2019-03-23T11:56:30.430Z,26.60
2019-03-23T11:59:00.311Z,25.80
2019-03-23T12:01:31.458Z,24.50
2019-03-23T12:04:02.312Z,25.40
2019-03-23T12:06:33.181Z,24.70
2019-03-23T12:09:05.505Z,24.00
2019-03-23T12:11:36.436Z,23.70
2019-03-23T12:14:08.363Z,23.40
2019-03-23T12:16:39.233Z,23.80
2019-03-23T12:19:10.203Z,23.90
2019-03-23T12:21:41.246Z,23.60
2019-03-23T12:24:12.110Z,23.70
2019-03-23T12:26:43.025Z,22.40
2019-03-23T12:29:13.912Z,22.20
2019-03-23T12:31:44.790Z,21.20
2019-03-23T12:34:15.826Z,21.10
2019-03-23T12:36:46.753Z,20.50
2019-03-23T12:39:17.642Z,20.60
2019-03-23T12:41:48.480Z,20.90
2019-03-23T12:44:19.356Z,20.80
2019-03-23T12:46:50.199Z,20.20
2019-03-23T12:49:21.077Z,20.20
2019-03-23T12:51:51.960Z,19.90
2019-03-23T12:54:22.985Z,19.40
2019-03-23T12:56:54.050Z,20.20
2019-03-23T12:59:25.006Z,20.70
2019-03-23T13:01:55.946Z,20.70
2019-03-23T13:04:26.804Z,20.80
2019-03-23T13:06:57.692Z,20.50
2019-03-23T13:09:28.561Z,21.10
2019-03-23T13:11:59.459Z,19.90
2019-03-23T13:14:31.263Z,20.80
2019-03-23T13:17:02.175Z,20.40
2019-03-23T13:19:33.012Z,19.50
2019-03-23T13:22:03.925Z,19.60
2019-03-23T13:24:34.902Z,19.30
2019-03-23T13:27:05.966Z,19.50
2019-03-23T13:29:36.804Z,19.40
2019-03-23T13:32:07.779Z,18.70
2019-03-23T13:34:40.027Z,19.10
2019-03-23T13:37:10.913Z,18.70
2019-03-23T13:39:41.811Z,18.30
2019-03-23T13:42:12.889Z,18.60
2019-03-23T13:44:43.766Z,19.30
2019-03-23T13:47:14.668Z,19.90
2019-03-23T13:49:45.513Z,19.60
2019-03-23T13:52:16.609Z,18.90
2019-03-23T13:54:47.456Z,18.10
2019-03-23T13:57:18.382Z,18.90
2019-03-23T13:59:49.321Z,19.40
2019-03-23T14:02:20.332Z,19.30
2019-03-23T14:04:51.215Z,18.70
2019-03-23T14:07:22.100Z,18.30
2019-03-23T14:09:53.288Z,18.70
2019-03-23T14:12:24.192Z,18.30
2019-03-23T14:14:55.187Z,17.70
2019-03-23T14:17:26.092Z,19.60
2019-03-23T14:19:57.049Z,18.50
2019-03-23T14:22:28.105Z,19.20
2019-03-23T14:24:58.952Z,18.60
2019-03-23T14:27:29.873Z,18.90
2019-03-23T14:30:02.030Z,18.80
2019-03-23T14:32:37.619Z,18.50
2019-03-23T14:35:09.359Z,18.80
2019-03-23T14:37:44.209Z,18.30
2019-03-23T14:40:15.076Z,18.20
2019-03-23T14:42:45.935Z,19.10
2019-03-23T14:45:16.963Z,18.50
2019-03-23T14:47:48.000Z,19.00
2019-03-23T14:50:18.875Z,18.70
2019-03-23T14:52:50.043Z,18.40
2019-03-23T14:55:21.050Z,18.10
2019-03-23T14:57:52.073Z,18.40
2019-03-23T15:00:33.327Z,17.60
2019-03-23T15:03:04.441Z,17.30
2019-03-23T15:05:36.469Z,17.90
2019-03-23T15:08:07.479Z,18.00
2019-03-23T15:10:38.399Z,17.70
2019-03-23T15:13:09.491Z,17.60
2019-03-23T15:15:40.481Z,17.70
2019-03-23T15:18:12.447Z,17.20
2019-03-23T15:20:44.284Z,17.10
2019-03-23T15:23:15.178Z,17.40
2019-03-23T15:25:46.216Z,17.00
2019-03-23T15:28:17.061Z,16.90
2019-03-23T15:30:47.961Z,17.50
2019-03-23T15:33:18.851Z,16.20
2019-03-23T15:35:49.710Z,16.60
2019-03-23T15:38:20.573Z,16.80
2019-03-23T15:40:51.426Z,17.40
2019-03-23T15:43:22.283Z,17.30
2019-03-23T15:45:53.128Z,17.80
2019-03-23T15:48:24.975Z,17.30
2019-03-23T15:50:55.820Z,17.60
2019-03-23T15:53:26.690Z,17.60
2019-03-23T15:55:57.526Z,18.20
2019-03-23T15:58:28.483Z,18.40
2019-03-23T16:00:59.338Z,18.50
2019-03-23T16:03:30.228Z,18.70
2019-03-23T16:06:01.074Z,18.90
2019-03-23T16:08:31.998Z,19.00
2019-03-23T16:11:02.845Z,19.10
2019-03-23T16:13:33.836Z,18.50
2019-03-23T16:16:04.727Z,18.10
2019-03-23T16:18:35.668Z,18.50
2019-03-23T16:21:06.516Z,18.30
2019-03-23T16:23:37.516Z,18.70
2019-03-23T16:26:08.441Z,18.70
2019-03-23T16:28:39.362Z,18.90
2019-03-23T16:31:10.257Z,18.70
2019-03-23T16:33:41.249Z,19.00
2019-03-23T16:36:12.160Z,19.60
2019-03-23T16:38:43.134Z,19.50
2019-03-23T16:41:13.957Z,19.60
2019-03-23T16:43:44.865Z,19.70
2019-03-23T16:46:15.704Z,19.70
2019-03-23T16:48:46.585Z,19.90
2019-03-23T16:51:17.957Z,20.20
2019-03-23T16:53:49.606Z,20.20
2019-03-23T16:56:20.448Z,20.60
2019-03-23T16:58:51.403Z,21.00
2019-03-23T17:01:22.455Z,21.10
2019-03-23T17:03:53.385Z,21.40
2019-03-23T17:06:24.641Z,21.70
2019-03-23T17:08:56.648Z,21.90
2019-03-23T17:11:27.602Z,22.70
2019-03-23T17:13:58.893Z,23.30
2019-03-23T17:16:29.828Z,23.80
2019-03-23T17:19:00.802Z,24.90
2019-03-23T17:21:32.003Z,25.70
2019-03-23T17:24:02.967Z,26.00
2019-03-23T17:26:34.116Z,27.00
2019-03-23T17:29:05.411Z,27.30
2019-03-23T17:31:39.811Z,27.50
2019-03-23T17:34:10.831Z,27.70
2019-03-23T17:36:41.985Z,28.40
2019-03-23T17:39:12.904Z,28.70
2019-03-23T17:41:44.100Z,28.90
2019-03-23T17:44:15.074Z,29.00
2019-03-23T17:46:46.038Z,29.50
2019-03-23T17:49:17.410Z,29.80
2019-03-23T17:51:48.418Z,30.00
2019-03-23T17:54:19.798Z,31.10
2019-03-23T17:56:51.012Z,31.70
2019-03-23T17:59:22.139Z,32.00
2019-03-23T18:01:53.020Z,32.50
2019-03-23T18:04:25.014Z,33.60
2019-03-23T18:06:56.229Z,33.90
2019-03-23T18:09:27.131Z,34.40
2019-03-23T18:11:57.987Z,34.70
2019-03-23T18:14:28.859Z,35.70
2019-03-23T18:16:59.692Z,35.90
2019-03-23T18:19:30.556Z,36.30
2019-03-23T18:22:01.403Z,36.90
2019-03-23T18:24:32.264Z,36.80
2019-03-23T18:27:04.526Z,37.70
2019-03-23T18:29:35.498Z,38.70
2019-03-23T18:32:06.376Z,39.50
2019-03-23T18:34:37.333Z,39.10
2019-03-23T18:37:08.812Z,38.60
2019-03-23T18:39:39.674Z,38.90
2019-03-23T18:42:10.521Z,39.10
2019-03-23T18:44:41.460Z,40.00
2019-03-23T18:47:12.315Z,40.20
2019-03-23T18:49:43.269Z,40.20
2019-03-23T18:52:14.108Z,41.00
2019-03-23T18:54:46.343Z,41.90
2019-03-23T18:57:17.191Z,42.00
2019-03-23T18:59:48.078Z,41.70
2019-03-23T19:02:19.048Z,42.50
2019-03-23T19:04:50.050Z,43.00
2019-03-23T19:07:20.918Z,43.50
2019-03-23T19:09:53.397Z,44.00
2019-03-23T19:12:24.230Z,44.10
2019-03-23T19:14:55.094Z,45.30
2019-03-23T19:17:25.954Z,45.20
2019-03-23T19:19:56.928Z,45.00
2019-03-23T19:22:27.765Z,45.10
2019-03-23T19:24:58.634Z,44.90
2019-03-23T19:27:29.472Z,45.10
2019-03-23T19:30:00.363Z,45.00
2019-03-23T19:32:31.931Z,45.70
2019-03-23T19:35:03.873Z,45.60
2019-03-23T19:37:34.712Z,45.80
2019-03-23T19:40:06.393Z,46.50
2019-03-23T19:42:37.229Z,46.30
2019-03-23T19:45:08.309Z,46.80
2019-03-23T19:47:40.211Z,47.10
2019-03-23T19:50:11.316Z,47.20
2019-03-23T19:52:42.181Z,47.10
2019-03-23T19:55:13.053Z,47.00
2019-03-23T19:57:43.908Z,47.40
2019-03-23T20:00:15.225Z,47.10
2019-03-23T20:02:46.057Z,47.50
2019-03-23T20:05:16.949Z,47.90
2019-03-23T20:07:47.876Z,49.10
2019-03-23T20:10:19.677Z,49.20
2019-03-23T20:12:50.969Z,49.10
2019-03-23T20:15:22.002Z,49.30
2019-03-23T20:17:53.056Z,49.40
2019-03-23T20:20:24.158Z,49.80
2019-03-23T20:22:55.112Z,50.40
2019-03-23T20:25:26.028Z,50.90
2019-03-23T20:27:57.262Z,52.10
2019-03-23T20:30:29.061Z,53.00
2019-03-23T20:33:00.111Z,53.00
2019-03-23T20:35:31.953Z,54.70
2019-03-23T20:38:02.798Z,55.70
2019-03-23T20:40:33.803Z,55.80
2019-03-23T20:43:04.620Z,56.50
2019-03-23T20:45:35.496Z,58.40
2019-03-23T20:48:06.446Z,59.00
2019-03-23T20:50:38.798Z,59.30
2019-03-23T20:53:09.632Z,61.50
2019-03-23T20:55:40.569Z,61.00
2019-03-23T20:58:11.615Z,62.50
2019-03-23T21:00:42.844Z,62.40
2019-03-23T21:03:13.666Z,63.30
2019-03-23T21:05:44.572Z,63.80
2019-03-23T21:08:15.420Z,64.30
2019-03-23T21:10:46.293Z,63.60
2019-03-23T21:13:17.167Z,63.90
2019-03-23T21:15:48.054Z,65.30
2019-03-23T21:18:21.942Z,65.60
2019-03-23T21:20:53.905Z,65.40
2019-03-23T21:23:28.517Z,67.40
2019-03-23T21:25:59.375Z,66.70
2019-03-23T21:28:30.216Z,66.80
2019-03-23T21:31:01.091Z,66.90
2019-03-23T21:33:36.070Z,66.80
2019-03-23T21:36:04.606Z,68.40
2019-03-23T21:38:35.530Z,67.50
2019-03-23T21:41:06.537Z,68.10
2019-03-23T21:43:37.379Z,67.90
2019-03-23T21:46:08.269Z,68.80
2019-03-23T21:48:39.123Z,69.10
2019-03-23T21:51:09.976Z,68.90
2019-03-23T21:53:40.835Z,68.90
2019-03-23T21:56:11.708Z,69.50
2019-03-23T21:58:42.646Z,69.90
2019-03-23T22:01:13.548Z,70.10
2019-03-23T22:03:45.024Z,70.30
2019-03-23T22:06:15.874Z,70.80
2019-03-23T22:08:46.737Z,70.20
2019-03-23T22:11:17.582Z,70.60
2019-03-23T22:13:48.451Z,70.80
2019-03-23T22:16:19.286Z,71.40
2019-03-23T22:18:50.150Z,72.00
2019-03-23T22:21:20.995Z,73.20
2019-03-23T22:23:51.892Z,74.10
2019-03-23T22:26:22.750Z,74.20
2019-03-23T22:28:53.620Z,74.40
2019-03-23T22:31:24.652Z,74.40
2019-03-23T22:33:55.535Z,74.60
2019-03-23T22:36:27.522Z,74.70
2019-03-23T22:38:58.399Z,75.90
2019-03-23T22:41:29.584Z,75.50
2019-03-23T22:44:00.877Z,75.80
2019-03-23T22:46:31.814Z,75.10
2019-03-23T22:49:03.397Z,75.90
2019-03-23T22:51:34.247Z,75.60
2019-03-23T22:54:05.129Z,76.10
2019-03-23T22:56:35.993Z,75.40
2019-03-23T22:59:06.860Z,76.30
2019-03-23T23:01:37.897Z,76.30
2019-03-23T23:04:08.822Z,76.50
2019-03-23T23:06:39.694Z,76.00
2019-03-23T23:09:11.303Z,76.80
2019-03-23T23:11:42.166Z,76.80
2019-03-23T23:14:14.891Z,77.40
2019-03-23T23:16:45.766Z,76.60
2019-03-23T23:19:16.940Z,77.10
2019-03-23T23:21:49.087Z,76.80
2019-03-23T23:24:20.198Z,76.90
2019-03-23T23:26:53.425Z,77.50
2019-03-23T23:29:24.285Z,77.50
2019-03-23T23:31:55.154Z,77.10
2019-03-23T23:34:26.269Z,77.60
2019-03-23T23:36:57.219Z,77.70
2019-03-23T23:39:28.393Z,78.10
2019-03-23T23:41:59.725Z,77.70
2019-03-23T23:44:30.596Z,78.30
2019-03-23T23:47:01.467Z,78.40
2019-03-23T23:49:32.413Z,78.00
2019-03-23T23:52:03.255Z,78.70
2019-03-23T23:54:34.424Z,78.60
2019-03-23T23:57:05.312Z,79.50
2019-03-23T23:59:36.440Z,78.50
